createdAt,value
2022-12-06T00:01:48.503Z,6.00
2022-12-06T00:04:16.933Z,4.45
2022-12-06T00:06:51.141Z,5.60
2022-12-06T00:09:26.745Z,4.00
2022-12-06T00:11:55.323Z,5.25
2022-12-06T00:14:23.299Z,5.40
2022-12-06T00:16:57.987Z,4.97
2022-12-06T00:19:26.220Z,4.70
2022-12-06T00:21:56.461Z,6.00
2022-12-06T00:24:24.474Z,5.93
2022-12-06T00:26:53.556Z,6.25
2022-12-06T00:29:23.137Z,4.95
2022-12-06T00:31:51.212Z,6.40
2022-12-06T00:34:19.179Z,4.82
2022-12-06T00:36:47.964Z,6.15
2022-12-06T00:39:17.115Z,4.22
2022-12-06T00:41:45.168Z,4.93
2022-12-06T00:44:13.416Z,5.45
2022-12-06T00:46:41.556Z,5.20
2022-12-06T00:49:09.915Z,5.75
2022-12-06T00:51:38.236Z,5.70
2022-12-06T00:54:06.502Z,5.53
2022-12-06T00:56:35.705Z,4.25
2022-12-06T00:59:04.192Z,5.72
2022-12-06T01:01:33.715Z,5.05
2022-12-06T01:04:04.667Z,5.35
2022-12-06T01:06:34.031Z,6.05
2022-12-06T01:09:04.780Z,5.28
2022-12-06T01:11:33.826Z,5.75
2022-12-06T01:14:02.565Z,4.95
2022-12-06T01:16:31.301Z,4.93
2022-12-06T01:19:01.188Z,6.93
2022-12-06T01:21:29.303Z,5.75
2022-12-06T01:24:00.424Z,5.90
2022-12-06T01:26:30.589Z,5.65
2022-12-06T01:28:59.579Z,5.75
2022-12-06T01:31:33.678Z,5.50
2022-12-06T01:34:06.377Z,4.65
2022-12-06T01:36:34.855Z,5.63
2022-12-06T01:39:06.966Z,5.72
2022-12-06T01:41:35.853Z,4.47
2022-12-06T01:44:04.693Z,5.63
2022-12-06T01:46:43.477Z,4.97
2022-12-06T01:49:21.250Z,6.38
2022-12-06T01:51:58.075Z,5.93
2022-12-06T01:54:26.528Z,5.80
2022-12-06T01:56:54.580Z,5.30
2022-12-06T01:59:22.572Z,5.28
2022-12-06T02:01:50.600Z,6.50
2022-12-06T02:04:18.546Z,5.78
2022-12-06T02:06:46.737Z,5.15
2022-12-06T02:09:14.771Z,5.82
2022-12-06T02:11:43.826Z,5.85
2022-12-06T02:14:14.699Z,6.10
2022-12-06T02:16:55.074Z,6.22
2022-12-06T02:19:37.765Z,7.28
2022-12-06T02:22:08.289Z,7.25
2022-12-06T02:24:36.327Z,6.25
2022-12-06T02:27:16.886Z,5.30
2022-12-06T02:29:59.961Z,5.78
2022-12-06T02:32:58.153Z,6.32
2022-12-06T02:35:31.917Z,6.22
2022-12-06T02:38:14.217Z,7.85
2022-12-06T02:40:54.276Z,6.57
2022-12-06T02:43:23.979Z,6.90
2022-12-06T02:45:54.286Z,8.32
2022-12-06T02:48:22.668Z,7.30
2022-12-06T02:50:57.379Z,6.65
2022-12-06T02:53:26.232Z,7.35
2022-12-06T02:55:54.640Z,6.70
2022-12-06T02:58:23.777Z,5.90
2022-12-06T03:01:00.042Z,6.65
2022-12-06T03:04:00.699Z,6.65
2022-12-06T03:06:39.523Z,5.57
2022-12-06T03:09:32.053Z,6.38
2022-12-06T03:12:24.164Z,5.90
2022-12-06T03:15:05.778Z,6.88
2022-12-06T03:17:42.330Z,7.10
2022-12-06T03:20:15.141Z,7.72
2022-12-06T03:22:46.868Z,7.30
2022-12-06T03:25:19.855Z,6.82
2022-12-06T03:27:48.228Z,7.07
2022-12-06T03:30:16.387Z,7.20
2022-12-06T03:32:46.689Z,6.70
2022-12-06T03:35:16.907Z,6.50
2022-12-06T03:37:47.211Z,5.95
2022-12-06T03:40:21.932Z,6.82
2022-12-06T03:42:50.329Z,6.47
2022-12-06T03:45:19.181Z,6.45
2022-12-06T03:47:52.990Z,6.70
2022-12-06T03:50:26.799Z,6.75
2022-12-06T03:52:54.758Z,5.97
2022-12-06T03:55:22.806Z,7.03
2022-12-06T03:57:50.952Z,6.93
2022-12-06T04:00:19.282Z,6.38
2022-12-06T04:02:47.359Z,5.93
2022-12-06T04:05:15.215Z,5.07
2022-12-06T04:07:43.144Z,6.90
2022-12-06T04:10:13.655Z,6.05
2022-12-06T04:13:00.489Z,5.32
2022-12-06T04:15:38.829Z,6.72
2022-12-06T04:18:16.462Z,5.97
2022-12-06T04:21:23.975Z,5.82
2022-12-06T04:23:52.711Z,5.38
2022-12-06T04:26:24.406Z,4.78
2022-12-06T04:29:11.378Z,4.80
2022-12-06T04:31:58.587Z,4.47
2022-12-06T04:34:44.867Z,5.40
2022-12-06T04:37:33.908Z,4.88
2022-12-06T04:40:02.352Z,5.38
2022-12-06T04:42:50.632Z,6.20
2022-12-06T04:45:23.619Z,6.90
2022-12-06T04:47:51.434Z,6.25
2022-12-06T04:50:19.255Z,6.50
2022-12-06T04:52:50.640Z,5.20
2022-12-06T04:55:18.704Z,7.95
2022-12-06T04:57:46.684Z,7.13
2022-12-06T05:00:16.512Z,6.88
2022-12-06T05:02:44.435Z,6.40
2022-12-06T05:05:14.106Z,6.47
2022-12-06T05:07:44.795Z,6.32
2022-12-06T05:10:13.824Z,5.88
2022-12-06T05:12:41.654Z,7.78
2022-12-06T05:15:09.762Z,7.13
2022-12-06T05:17:37.786Z,8.57
2022-12-06T05:20:07.829Z,6.30
2022-12-06T05:22:36.541Z,7.50
2022-12-06T05:25:10.363Z,6.43
2022-12-06T05:27:45.095Z,7.38
2022-12-06T05:30:35.169Z,7.22
2022-12-06T05:33:05.905Z,6.25
2022-12-06T05:35:54.742Z,6.97
2022-12-06T05:38:22.659Z,6.40
2022-12-06T05:40:57.665Z,4.68
2022-12-06T05:43:25.589Z,5.50
2022-12-06T05:45:53.982Z,5.93
2022-12-06T05:48:22.644Z,4.43
2022-12-06T05:50:50.921Z,5.28
2022-12-06T05:53:18.859Z,6.45
2022-12-06T05:55:48.927Z,6.35
2022-12-06T05:58:19.363Z,6.43
2022-12-06T06:00:50.446Z,6.45
2022-12-06T06:03:18.895Z,6.10
2022-12-06T06:05:48.707Z,5.93
2022-12-06T06:08:17.716Z,7.60
2022-12-06T06:10:46.509Z,4.60
2022-12-06T06:13:14.878Z,6.05
2022-12-06T06:15:45.435Z,6.22
2022-12-06T06:18:17.740Z,6.55
2022-12-06T06:20:53.418Z,5.95
2022-12-06T06:23:21.531Z,6.93
2022-12-06T06:25:49.594Z,7.15
2022-12-06T06:28:19.564Z,7.80
2022-12-06T06:30:47.756Z,6.60
2022-12-06T06:33:23.682Z,7.13
2022-12-06T06:35:52.253Z,7.45
2022-12-06T06:38:20.659Z,7.53
2022-12-06T06:40:48.654Z,7.95
2022-12-06T06:43:21.056Z,6.75
2022-12-06T06:45:58.315Z,7.53
2022-12-06T06:48:29.430Z,6.65
2022-12-06T06:51:03.661Z,7.18
2022-12-06T06:53:41.361Z,7.07
2022-12-06T06:56:10.050Z,5.80
2022-12-06T06:58:38.399Z,7.35
2022-12-06T07:01:07.319Z,7.72
2022-12-06T07:03:35.361Z,7.90
2022-12-06T07:06:05.440Z,7.55
2022-12-06T07:08:35.357Z,8.13
2022-12-06T11:11:28.217Z,4.13
2022-12-06T11:14:41.619Z,4.88
2022-12-06T11:17:18.687Z,4.00
2022-12-06T11:19:50.324Z,3.78
2022-12-06T11:22:46.030Z,3.85
2022-12-06T11:25:39.729Z,3.85
2022-12-06T11:28:23.548Z,3.22
2022-12-06T11:30:53.074Z,3.83
2022-12-06T11:33:22.230Z,3.80
2022-12-06T11:35:50.345Z,3.60
2022-12-06T11:38:18.426Z,4.05
2022-12-06T11:40:47.558Z,3.35
2022-12-06T11:43:24.383Z,3.60
2022-12-06T11:45:52.738Z,4.05
2022-12-06T11:48:23.390Z,3.63
2022-12-06T11:50:52.249Z,3.67
2022-12-06T11:53:27.890Z,5.05
2022-12-06T11:55:59.428Z,3.75
2022-12-06T11:58:41.992Z,2.78
2022-12-06T12:01:12.137Z,4.15
2022-12-06T12:03:42.157Z,4.15
2022-12-06T12:06:23.977Z,13.02
2022-12-06T12:08:54.432Z,5.68
2022-12-06T12:11:23.861Z,5.97
2022-12-06T12:13:54.721Z,5.38
2022-12-06T12:16:30.916Z,4.88
2022-12-06T12:19:00.753Z,5.68
2022-12-06T12:21:37.111Z,6.03
2022-12-06T12:26:41.388Z,5.20
2022-12-06T12:29:09.316Z,4.45
2022-12-06T12:31:54.596Z,7.28
2022-12-06T12:34:27.277Z,6.67
2022-12-06T12:37:00.866Z,4.70
2022-12-06T12:39:35.130Z,4.55
2022-12-06T12:42:04.127Z,3.40
2022-12-06T12:44:38.701Z,4.60
2022-12-06T12:47:20.126Z,6.68
2022-12-06T12:50:20.355Z,5.80
2022-12-06T12:52:48.430Z,5.95
2022-12-06T12:55:29.081Z,5.38
2022-12-06T12:57:58.852Z,4.07
2022-12-06T13:00:37.634Z,3.00
2022-12-06T13:03:49.423Z,4.20
2022-12-06T13:06:07.521Z,3.92
2022-12-06T13:08:35.481Z,4.35
2022-12-06T13:11:03.477Z,3.38
2022-12-06T13:13:37.477Z,3.90
2022-12-06T13:16:10.523Z,5.00
2022-12-06T13:18:46.522Z,6.03
2022-12-06T13:21:21.266Z,5.25
2022-12-06T13:23:54.443Z,5.10
2022-12-06T13:26:26.876Z,4.80
2022-12-06T13:28:57.773Z,4.60
2022-12-06T13:31:31.353Z,8.30
2022-12-06T13:34:03.640Z,8.93
2022-12-06T13:36:32.836Z,12.13
2022-12-06T13:39:33.196Z,14.07
2022-12-06T13:42:19.891Z,19.58
2022-12-06T13:44:50.798Z,15.65
2022-12-06T13:47:30.845Z,11.13
2022-12-06T13:50:12.701Z,8.68
2022-12-06T13:52:43.991Z,5.78
2022-12-06T13:55:24.177Z,4.40
2022-12-06T13:57:58.361Z,3.78
2022-12-06T14:00:31.965Z,4.88
2022-12-06T14:03:35.577Z,4.07
2022-12-06T14:06:13.913Z,4.15
2022-12-06T14:08:49.803Z,4.05
2022-12-06T14:11:27.766Z,4.45
2022-12-06T14:13:55.556Z,3.58
2022-12-06T14:16:41.842Z,4.60
2022-12-06T14:19:20.522Z,4.50
2022-12-06T14:22:05.728Z,4.40
2022-12-06T14:24:38.414Z,5.53
2022-12-06T14:27:13.862Z,5.03
2022-12-06T14:29:42.874Z,5.63
2022-12-06T14:32:10.783Z,3.75
2022-12-06T14:34:38.671Z,5.80
2022-12-06T14:37:19.948Z,5.93
2022-12-06T14:39:52.664Z,5.25
2022-12-06T14:42:39.348Z,4.85
2022-12-06T14:45:19.519Z,6.57
2022-12-06T14:47:47.401Z,6.53
2022-12-06T14:50:29.795Z,5.90
2022-12-06T14:53:07.426Z,5.05
2022-12-06T14:55:57.239Z,5.47
2022-12-06T14:58:40.620Z,4.13
2022-12-06T15:01:18.721Z,4.57
2022-12-06T15:04:02.190Z,5.53
2022-12-06T15:06:32.217Z,4.72
2022-12-06T15:09:00.103Z,4.57
2022-12-06T15:11:49.044Z,6.45
2022-12-06T15:14:27.769Z,5.50
2022-12-06T15:17:18.191Z,5.20
2022-12-06T15:19:51.205Z,5.53
2022-12-06T15:22:29.245Z,4.82
2022-12-06T15:24:57.908Z,5.50
2022-12-06T15:27:28.953Z,4.80
2022-12-06T15:29:57.205Z,4.60
2022-12-06T15:32:26.516Z,4.40
2022-12-06T15:34:54.515Z,3.53
2022-12-06T15:37:39.779Z,2.83
2022-12-06T15:40:14.922Z,5.03
2022-12-06T15:42:43.629Z,4.25
2022-12-06T15:45:20.779Z,4.88
2022-12-06T15:47:51.788Z,4.22
2022-12-06T15:50:20.610Z,4.93
2022-12-06T15:52:48.619Z,4.60
2022-12-06T15:55:18.555Z,6.07
2022-12-06T15:57:46.473Z,4.55
2022-12-06T16:00:14.680Z,4.57
2022-12-06T16:02:42.664Z,4.78
2022-12-06T16:05:16.398Z,5.07
2022-12-06T16:07:44.602Z,4.55
2022-12-06T16:10:15.497Z,3.95
2022-12-06T16:13:04.167Z,4.45
2022-12-06T16:17:59.719Z,3.88
2022-12-06T16:20:31.300Z,4.97
2022-12-06T16:24:12.649Z,4.18
2022-12-06T16:26:39.482Z,3.97
2022-12-06T16:29:07.910Z,5.53
2022-12-06T16:31:38.721Z,5.40
2022-12-06T16:34:12.087Z,4.82
2022-12-06T16:36:57.423Z,4.93
2022-12-06T16:39:25.722Z,10.65
2022-12-06T20:23:06.170Z,4.68
2022-12-06T20:25:39.377Z,4.88
2022-12-06T20:28:13.516Z,5.20
2022-12-06T20:30:41.848Z,5.72
2022-12-06T20:33:09.737Z,4.45
2022-12-06T20:35:39.401Z,4.82
2022-12-06T20:38:07.317Z,5.03
2022-12-06T20:40:36.997Z,4.30
2022-12-06T20:43:04.913Z,4.13
2022-12-06T20:45:32.967Z,4.82
2022-12-06T20:48:00.985Z,3.78
2022-12-06T20:50:29.056Z,4.30
2022-12-06T20:52:56.910Z,4.95
2022-12-06T20:55:25.062Z,5.30
2022-12-06T20:57:53.050Z,6.05
2022-12-06T21:00:21.700Z,5.90
2022-12-06T21:02:50.207Z,5.15
2022-12-06T21:05:19.092Z,4.45
2022-12-06T21:07:47.467Z,5.65
2022-12-06T21:10:16.608Z,4.45
2022-12-06T21:12:45.302Z,5.63
2022-12-06T21:15:13.966Z,5.18
2022-12-06T21:17:41.871Z,6.40
2022-12-06T21:20:10.622Z,5.65
2022-12-06T21:22:40.272Z,6.25
2022-12-06T21:25:08.665Z,6.78
2022-12-06T21:27:40.501Z,6.68
2022-12-06T21:30:10.228Z,6.60
2022-12-06T21:32:38.359Z,7.40
2022-12-06T21:35:08.107Z,7.55
2022-12-06T21:37:44.284Z,6.90
2022-12-06T21:40:14.812Z,7.80
2022-12-06T21:42:42.752Z,6.80
2022-12-06T21:45:11.014Z,7.68
2022-12-06T21:47:40.210Z,6.47
2022-12-06T21:50:10.816Z,6.13
2022-12-06T21:52:40.101Z,5.75
2022-12-06T21:55:08.802Z,5.93
2022-12-06T21:57:38.249Z,5.68
2022-12-06T22:00:07.988Z,5.22
2022-12-06T22:02:40.961Z,6.47
2022-12-06T22:05:11.537Z,6.13
2022-12-06T22:07:39.768Z,5.57
2022-12-06T22:10:08.896Z,7.03
2022-12-06T22:12:37.375Z,6.40
2022-12-06T22:15:06.996Z,5.85
2022-12-06T22:17:34.979Z,7.28
2022-12-06T22:20:03.483Z,5.68
2022-12-06T22:22:31.631Z,6.55
2022-12-06T22:24:59.734Z,6.07
2022-12-06T22:27:27.779Z,5.47
2022-12-06T22:29:57.420Z,9.52
2022-12-06T22:32:25.357Z,9.18
2022-12-06T22:34:53.219Z,9.10
2022-12-06T22:37:26.855Z,11.20
2022-12-06T22:39:56.632Z,13.30
2022-12-06T22:42:24.587Z,12.68
2022-12-06T22:44:52.700Z,14.23
2022-12-06T22:47:20.954Z,14.45
2022-12-06T22:49:49.351Z,15.93
2022-12-06T22:52:18.918Z,19.00
2022-12-06T22:54:48.776Z,23.75
2022-12-06T22:57:17.470Z,18.35
2022-12-06T22:59:46.759Z,16.45
2022-12-06T23:02:15.481Z,17.35
2022-12-06T23:04:43.948Z,16.13
2022-12-06T23:07:14.408Z,13.75
2022-12-06T23:09:45.533Z,10.75
2022-12-06T23:12:13.690Z,11.18
2022-12-06T23:14:42.557Z,8.52
2022-12-06T23:17:15.822Z,9.05
2022-12-06T23:22:15.965Z,8.07
2022-12-06T23:24:44.547Z,7.05
2022-12-06T23:27:15.975Z,7.07
2022-12-06T23:29:43.934Z,8.65
2022-12-06T23:32:13.011Z,7.53
2022-12-06T23:34:41.437Z,5.38
2022-12-06T23:37:11.279Z,5.35
2022-12-06T23:39:39.202Z,7.22
2022-12-06T23:42:07.619Z,6.20
2022-12-06T23:44:37.266Z,6.32
2022-12-06T23:47:05.479Z,6.20
2022-12-06T23:49:33.763Z,7.03
2022-12-06T23:52:02.067Z,7.28
2022-12-06T23:54:30.270Z,6.72
2022-12-06T23:57:04.556Z,6.72
2022-12-06T23:59:32.536Z,6.32
